Time;durP1;ratioP1;P1;durP2;ratioP2;P2;SDS_P1;SDS_P2;PMS_P1;PMS_P2;Temp;Humidity;BMP_temperature;BMP_pressure;BME280_temperature;BME280_humidity;BME280_pressure;Samples;Min_cycle;Max_cycle;Signal;HPM_P1;HPM_P2
2024/03/05 00:00:10;;;;;;;73.68;40.03;;;8.20;99.90;;;;;;4974017;28;20184;-86
2024/03/05 00:02:40;;;;;;;65.47;38.70;;;8.20;99.90;;;;;;4983279;28;20194;-87
2024/03/05 00:05:13;;;;;;;68.97;40.00;;;8.20;99.90;;;;;;4995334;28;20278;-87
2024/03/05 00:07:43;;;;;;;66.38;39.65;;;8.30;99.90;;;;;;4978710;28;20196;-86
2024/03/05 00:10:09;;;;;;;63.53;37.28;;;8.30;99.90;;;;;;5008975;28;20192;-86
2024/03/05 00:12:34;;;;;;;62.53;37.03;;;8.30;99.90;;;;;;4978424;28;20287;-86
2024/03/05 00:15:01;;;;;;;55.30;34.33;;;8.30;99.90;;;;;;4985772;28;20615;-87
2024/03/05 00:17:29;;;;;;;52.65;34.13;;;8.30;99.90;;;;;;4985130;28;20222;-87
2024/03/05 00:19:55;;;;;;;46.93;32.33;;;8.30;99.90;;;;;;4994411;28;20199;-87
2024/03/05 00:22:21;;;;;;;51.13;32.60;;;8.30;99.90;;;;;;4997072;28;20192;-87
2024/03/05 00:24:46;;;;;;;48.60;30.90;;;8.30;99.90;;;;;;4978093;28;20661;-87
2024/03/05 00:27:20;;;;;;;47.92;30.33;;;8.30;99.90;;;;;;4995448;28;20190;-87
2024/03/05 00:29:46;;;;;;;48.42;30.00;;;8.20;99.90;;;;;;4995399;28;20330;-87
2024/03/05 00:32:12;;;;;;;43.35;28.55;;;8.20;99.90;;;;;;4994036;28;20297;-86
2024/03/05 00:34:38;;;;;;;42.70;29.35;;;8.20;99.90;;;;;;4987311;28;20192;-87
2024/03/05 00:37:14;;;;;;;41.43;27.87;;;8.20;99.90;;;;;;4978055;28;20215;-87
2024/03/05 00:39:39;;;;;;;41.33;27.90;;;8.10;99.90;;;;;;5004177;28;20186;-88
2024/03/05 00:42:05;;;;;;;39.87;27.23;;;8.10;99.90;;;;;;5002413;28;20263;-86
2024/03/05 00:44:31;;;;;;;37.17;26.27;;;8.00;99.90;;;;;;4978043;28;20274;-87
2024/03/05 00:46:56;;;;;;;40.30;26.27;;;8.00;99.90;;;;;;4994913;28;20279;-85
2024/03/05 00:49:23;;;;;;;41.43;25.97;;;7.90;99.90;;;;;;4977885;28;20183;-87
2024/03/05 00:51:49;;;;;;;37.27;25.20;;;7.90;99.90;;;;;;4995013;28;20181;-86
2024/03/05 00:54:15;;;;;;;41.17;25.07;;;7.80;99.90;;;;;;4991444;28;20194;-85
2024/03/05 00:56:43;;;;;;;40.80;24.87;;;7.70;99.90;;;;;;5004418;28;20179;-87
2024/03/05 00:59:08;;;;;;;42.33;26.67;;;7.70;99.90;;;;;;4973051;28;20212;-85
2024/03/05 01:01:34;;;;;;;42.67;25.03;;;7.60;99.90;;;;;;4991978;28;20219;-86
2024/03/05 01:04:00;;;;;;;38.53;24.50;;;7.60;99.90;;;;;;4969532;28;20713;-87
2024/03/05 01:06:42;;;;;;;38.37;24.00;;;7.60;99.90;;;;;;4972273;28;20323;-84
2024/03/05 01:09:11;;;;;;;39.00;24.40;;;7.60;99.90;;;;;;4980989;28;20531;-85
2024/03/05 01:11:40;;;;;;;40.63;23.70;;;7.50;99.90;;;;;;4973023;28;20242;-85
2024/03/05 01:14:05;;;;;;;37.23;24.17;;;7.50;99.90;;;;;;4980993;28;20281;-87
2024/03/05 01:16:32;;;;;;;35.87;24.27;;;7.50;99.90;;;;;;4998403;28;20272;-88
2024/03/05 01:18:59;;;;;;;37.23;23.53;;;7.50;99.90;;;;;;4980058;28;20497;-86
2024/03/05 01:21:25;;;;;;;36.87;23.00;;;7.50;99.90;;;;;;4974040;28;20184;-88
2024/03/05 01:23:51;;;;;;;35.03;23.00;;;7.50;99.90;;;;;;4972144;28;20279;-87
2024/03/05 01:26:17;;;;;;;37.77;23.27;;;7.40;99.90;;;;;;4998322;28;20498;-86
2024/03/05 01:28:43;;;;;;;35.37;23.17;;;7.40;99.90;;;;;;4980763;28;20183;-87
2024/03/05 01:31:09;;;;;;;41.03;23.60;;;7.30;99.90;;;;;;4972609;28;20310;-87
2024/03/05 01:33:37;;;;;;;34.10;22.97;;;7.30;99.90;;;;;;4983595;28;20184;-87
2024/03/05 01:36:03;;;;;;;34.67;22.33;;;7.30;99.90;;;;;;4985433;28;20188;-88
2024/03/05 01:38:29;;;;;;;32.17;22.30;;;7.30;99.90;;;;;;4986415;28;20216;-86
2024/03/05 01:40:55;;;;;;;34.70;22.70;;;7.20;99.90;;;;;;4996241;28;20191;-86
2024/03/05 01:43:21;;;;;;;34.30;21.47;;;7.20;99.90;;;;;;4990114;28;20616;-87
2024/03/05 01:45:50;;;;;;;33.10;21.40;;;7.20;99.90;;;;;;4975406;28;20628;-86
2024/03/05 01:48:24;;;;;;;38.57;22.17;;;7.20;99.90;;;;;;4965617;28;20197;-87
2024/03/05 01:50:50;;;;;;;39.37;21.77;;;7.20;99.90;;;;;;4968088;28;20185;-86
2024/03/05 01:53:17;;;;;;;38.50;22.00;;;7.20;99.90;;;;;;4976975;28;20199;-85
2024/03/05 01:55:45;;;;;;;31.50;21.20;;;7.10;99.90;;;;;;4968956;28;20325;-85
2024/03/05 01:58:15;;;;;;;33.97;22.47;;;7.10;99.90;;;;;;4984941;28;20208;-86
2024/03/05 02:00:42;;;;;;;31.97;21.13;;;7.10;99.90;;;;;;4978120;28;20181;-86
2024/03/05 02:03:11;;;;;;;35.37;21.10;;;7.00;99.90;;;;;;4985826;28;20188;-86
2024/03/05 02:05:41;;;;;;;34.93;22.17;;;7.10;99.90;;;;;;4969106;28;20200;-86
2024/03/05 02:08:07;;;;;;;37.17;21.67;;;7.00;99.90;;;;;;4969984;28;20188;-85
2024/03/05 02:10:33;;;;;;;34.90;21.63;;;7.00;99.90;;;;;;4976620;28;20282;-85
2024/03/05 02:12:58;;;;;;;34.73;20.97;;;7.00;99.90;;;;;;4974365;28;20289;-86
2024/03/05 02:15:24;;;;;;;34.83;20.43;;;6.90;99.90;;;;;;4980436;28;20616;-86
2024/03/05 02:17:51;;;;;;;33.63;22.37;;;6.90;99.90;;;;;;4983522;28;20670;-86
2024/03/05 02:20:17;;;;;;;33.00;21.17;;;6.90;99.90;;;;;;4972221;28;20189;-86
2024/03/05 02:22:43;;;;;;;35.07;22.30;;;6.90;99.90;;;;;;4968317;28;20192;-86
2024/03/05 02:25:12;;;;;;;37.50;21.67;;;6.90;99.90;;;;;;4977703;28;20185;-86
2024/03/05 02:27:40;;;;;;;32.77;21.87;;;6.90;99.90;;;;;;4967652;28;20196;-86
2024/03/05 02:30:10;;;;;;;34.80;21.80;;;6.90;99.90;;;;;;4969142;28;20319;-85
2024/03/05 02:32:40;;;;;;;33.20;20.93;;;6.90;99.90;;;;;;4976426;28;20192;-85
2024/03/05 02:35:07;;;;;;;34.63;21.63;;;6.80;99.90;;;;;;4975546;28;20601;-85
2024/03/05 02:37:38;;;;;;;33.67;21.73;;;6.90;99.90;;;;;;4983082;28;20612;-85
2024/03/05 02:40:09;;;;;;;34.57;22.37;;;6.90;99.90;;;;;;4971093;28;20193;-85
2024/03/05 02:42:35;;;;;;;31.50;21.33;;;6.80;99.90;;;;;;4972062;28;20212;-85
2024/03/05 02:45:04;;;;;;;33.87;21.83;;;6.80;99.90;;;;;;4976220;28;20215;-85
2024/03/05 02:47:32;;;;;;;31.13;21.80;;;6.80;99.90;;;;;;4967125;28;20195;-86
2024/03/05 02:49:59;;;;;;;40.07;21.57;;;6.80;99.90;;;;;;4975192;28;20250;-85
2024/03/05 02:52:25;;;;;;;37.30;22.33;;;6.90;99.90;;;;;;4976394;28;20239;-85
2024/03/05 02:54:51;;;;;;;32.63;21.87;;;6.80;99.90;;;;;;4983169;28;20188;-85
2024/03/05 02:57:20;;;;;;;34.50;21.10;;;6.80;99.90;;;;;;4976368;28;20208;-86
2024/03/05 02:59:46;;;;;;;36.90;22.47;;;6.80;99.90;;;;;;4974991;28;20215;-85
2024/03/05 03:02:11;;;;;;;31.27;21.20;;;6.80;99.90;;;;;;4971006;28;20512;-85
2024/03/05 03:04:37;;;;;;;28.67;20.30;;;6.80;99.90;;;;;;4972119;28;20180;-85
2024/03/05 03:07:03;;;;;;;33.67;21.20;;;6.80;99.90;;;;;;4986988;28;20187;-86
2024/03/05 03:09:30;;;;;;;29.00;19.90;;;6.70;99.90;;;;;;4979738;28;20255;-85
2024/03/05 03:11:56;;;;;;;34.37;21.90;;;6.70;99.90;;;;;;4967999;28;20267;-86
2024/03/05 03:14:22;;;;;;;32.70;20.67;;;6.70;99.90;;;;;;4974692;28;20184;-86
2024/03/05 03:16:49;;;;;;;33.00;21.40;;;6.70;99.90;;;;;;4991605;28;20184;-86
2024/03/05 03:19:22;;;;;;;33.83;19.67;;;6.70;99.90;;;;;;4982193;28;20304;-85
2024/03/05 03:21:49;;;;;;;36.03;20.80;;;6.80;99.90;;;;;;4976180;28;20173;-85
2024/03/05 03:24:14;;;;;;;29.43;20.13;;;6.70;99.90;;;;;;4974564;28;20218;-86
2024/03/05 03:26:40;;;;;;;38.50;19.73;;;6.80;99.90;;;;;;4975693;28;20207;-86
2024/03/05 03:29:14;;;;;;;33.33;20.20;;;6.70;99.90;;;;;;4969832;28;20193;-86
2024/03/05 03:31:46;;;;;;;38.67;19.50;;;6.70;99.90;;;;;;4940589;28;1169594;-86
2024/03/05 03:34:16;;;;;;;30.60;18.73;;;6.70;99.90;;;;;;4969867;28;20444;-86
2024/03/05 03:36:42;;;;;;;31.83;19.40;;;6.70;99.90;;;;;;4974222;28;20189;-85
2024/03/05 03:41:44;;;;;;;31.97;19.70;;;6.70;99.90;;;;;;5115484;23;20234;-77
2024/03/05 03:44:10;;;;;;;30.23;18.50;;;6.70;99.90;;;;;;5026002;28;20647;-77
2024/03/05 03:46:36;;;;;;;30.40;18.00;;;6.70;99.90;;;;;;5034507;28;20338;-78
2024/03/05 03:49:05;;;;;;;30.13;19.37;;;6.70;99.90;;;;;;5033890;28;20190;-78
2024/03/05 03:51:32;;;;;;;34.67;20.17;;;6.60;99.90;;;;;;5034323;28;20178;-78
2024/03/05 03:53:59;;;;;;;34.17;20.13;;;6.60;99.90;;;;;;5027653;28;20182;-78
2024/03/05 03:56:25;;;;;;;31.63;18.90;;;6.60;99.90;;;;;;5032953;28;20182;-78
2024/03/05 03:58:51;;;;;;;29.67;18.47;;;6.60;99.90;;;;;;5032482;28;20206;-78
2024/03/05 04:01:20;;;;;;;28.17;18.63;;;6.60;99.90;;;;;;5032879;28;20182;-78
2024/03/05 04:03:47;;;;;;;33.43;17.83;;;6.50;99.90;;;;;;5032561;28;20214;-78
2024/03/05 04:06:13;;;;;;;29.53;17.50;;;6.60;99.90;;;;;;5033081;28;20259;-78
2024/03/05 04:08:39;;;;;;;31.40;17.90;;;6.60;99.90;;;;;;5034044;28;20228;-78
2024/03/05 04:11:04;;;;;;;29.00;18.73;;;6.50;99.90;;;;;;5033622;28;20628;-78
2024/03/05 04:13:30;;;;;;;29.03;18.30;;;6.60;99.90;;;;;;5033938;28;20600;-79
2024/03/05 04:15:56;;;;;;;32.53;18.57;;;6.50;99.90;;;;;;5033975;28;20189;-78
2024/03/05 04:18:22;;;;;;;30.87;18.27;;;6.50;99.90;;;;;;5033551;28;20216;-78
2024/03/05 04:20:47;;;;;;;27.77;18.33;;;6.50;99.90;;;;;;5049165;28;20527;-78
2024/03/05 04:23:13;;;;;;;30.10;17.37;;;6.50;99.90;;;;;;5027320;28;20179;-78
2024/03/05 04:25:39;;;;;;;29.93;17.37;;;6.50;99.90;;;;;;5033706;28;20665;-77
2024/03/05 04:28:14;;;;;;;29.67;17.90;;;6.50;99.90;;;;;;5033500;28;20671;-78
2024/03/05 04:30:41;;;;;;;31.00;18.13;;;6.50;99.90;;;;;;5032567;28;20178;-77
2024/03/05 04:33:09;;;;;;;33.57;18.23;;;6.50;99.90;;;;;;5048973;28;20190;-78
2024/03/05 04:35:38;;;;;;;26.57;17.20;;;6.50;99.90;;;;;;5032866;28;20179;-77
2024/03/05 04:38:07;;;;;;;28.23;17.37;;;6.50;99.90;;;;;;5028140;28;20199;-79
2024/03/05 04:40:35;;;;;;;30.13;17.37;;;6.50;99.90;;;;;;5031398;28;20222;-78
2024/03/05 04:43:01;;;;;;;25.50;16.43;;;6.50;99.90;;;;;;5021203;28;20178;-80
2024/03/05 04:45:27;;;;;;;28.13;16.87;;;6.50;99.90;;;;;;5029488;28;20548;-79
2024/03/05 04:47:54;;;;;;;26.77;17.07;;;6.40;99.90;;;;;;5036960;28;20186;-78
2024/03/05 04:50:20;;;;;;;29.80;16.77;;;6.40;99.90;;;;;;5037453;28;20640;-79
2024/03/05 04:52:47;;;;;;;24.83;16.27;;;6.40;99.90;;;;;;5030876;28;20191;-79
2024/03/05 04:55:13;;;;;;;28.33;17.13;;;6.40;99.90;;;;;;5037677;28;20178;-79
2024/03/05 04:57:39;;;;;;;25.23;16.33;;;6.40;99.90;;;;;;5037194;28;20214;-78
2024/03/05 05:00:19;;;;;;;25.80;16.83;;;6.40;99.90;;;;;;5029130;28;20189;-77
2024/03/05 05:02:54;;;;;;;25.40;16.43;;;6.40;99.90;;;;;;5036874;28;20257;-77
2024/03/05 05:05:23;;;;;;;29.33;16.10;;;6.40;99.90;;;;;;5037162;28;20303;-77
2024/03/05 05:07:49;;;;;;;28.50;16.77;;;6.40;99.90;;;;;;5020652;28;20175;-78
2024/03/05 05:10:15;;;;;;;27.03;16.27;;;6.40;99.90;;;;;;5037225;28;20193;-78
2024/03/05 05:12:43;;;;;;;27.63;16.17;;;6.40;99.90;;;;;;5036990;28;20174;-77
2024/03/05 05:15:09;;;;;;;29.83;17.57;;;6.40;99.90;;;;;;5037310;28;20277;-78
2024/03/05 05:17:35;;;;;;;31.17;16.33;;;6.40;99.90;;;;;;5028412;28;20218;-77
2024/03/05 05:20:04;;;;;;;29.00;17.20;;;6.40;99.90;;;;;;5028523;28;20174;-77
2024/03/05 05:22:29;;;;;;;30.03;17.67;;;6.40;99.90;;;;;;5028855;28;20669;-77
2024/03/05 05:24:55;;;;;;;28.70;17.30;;;6.40;99.90;;;;;;5036755;28;20178;-77
2024/03/05 05:27:21;;;;;;;25.50;16.57;;;6.40;99.90;;;;;;5036940;28;20613;-77
2024/03/05 05:29:48;;;;;;;30.13;16.33;;;6.30;99.90;;;;;;5034449;28;20182;-77
2024/03/05 05:32:13;;;;;;;25.83;16.77;;;6.30;99.90;;;;;;5030465;28;20174;-77
2024/03/05 05:34:39;;;;;;;26.67;16.90;;;6.30;99.90;;;;;;5028187;28;20174;-78
2024/03/05 05:37:05;;;;;;;27.33;16.70;;;6.40;99.90;;;;;;5035069;28;20209;-77
2024/03/05 05:39:32;;;;;;;27.57;17.17;;;6.40;99.90;;;;;;5032177;28;20562;-78
2024/03/05 05:41:58;;;;;;;25.00;16.97;;;6.40;99.90;;;;;;5031929;28;20242;-77
2024/03/05 05:44:23;;;;;;;32.33;17.83;;;6.30;99.90;;;;;;5028218;28;20201;-77
2024/03/05 05:46:49;;;;;;;28.27;17.40;;;6.40;99.90;;;;;;5028526;28;20493;-77
2024/03/05 05:49:19;;;;;;;30.80;17.60;;;6.30;99.90;;;;;;5021686;28;20186;-77
2024/03/05 05:51:51;;;;;;;25.27;16.70;;;6.30;99.90;;;;;;5023832;28;20225;-77
2024/03/05 05:54:18;;;;;;;28.77;17.53;;;6.30;99.90;;;;;;5033752;28;20194;-78
2024/03/05 05:56:43;;;;;;;25.00;17.30;;;6.30;99.90;;;;;;5028093;28;20265;-77
2024/03/05 05:59:09;;;;;;;27.13;17.07;;;6.40;99.90;;;;;;5033191;28;20333;-78
2024/03/05 06:01:37;;;;;;;31.13;17.60;;;6.30;99.90;;;;;;5037182;28;20211;-77
2024/03/05 06:04:06;;;;;;;28.10;17.83;;;6.30;99.90;;;;;;5028464;28;20232;-78
2024/03/05 06:06:36;;;;;;;27.10;17.20;;;6.30;99.90;;;;;;5035506;28;20183;-78
2024/03/05 06:09:12;;;;;;;26.73;17.07;;;6.30;99.90;;;;;;5011851;28;20609;-77
2024/03/05 06:11:38;;;;;;;27.23;17.87;;;6.30;99.90;;;;;;5033510;28;20688;-77
2024/03/05 06:14:06;;;;;;;24.73;16.53;;;6.30;99.90;;;;;;5034425;28;20273;-78
2024/03/05 06:16:32;;;;;;;30.00;18.57;;;6.30;99.90;;;;;;5035835;28;20187;-78
2024/03/05 06:18:58;;;;;;;32.03;17.17;;;6.30;99.90;;;;;;5035279;28;20249;-77
2024/03/05 06:21:25;;;;;;;30.23;17.80;;;6.30;99.90;;;;;;5035723;28;20210;-77
2024/03/05 06:23:51;;;;;;;28.00;17.50;;;6.30;99.90;;;;;;5035677;28;20190;-77
2024/03/05 06:26:17;;;;;;;29.00;17.60;;;6.30;99.90;;;;;;5034339;28;20636;-77
2024/03/05 06:28:43;;;;;;;28.50;17.93;;;6.30;99.90;;;;;;5033746;28;20281;-77
2024/03/05 06:31:11;;;;;;;30.93;17.80;;;6.30;99.90;;;;;;5035620;28;20182;-77
2024/03/05 06:33:37;;;;;;;28.87;18.20;;;6.30;99.90;;;;;;5035220;28;20197;-77
2024/03/05 06:36:06;;;;;;;27.70;18.67;;;6.40;99.90;;;;;;5050778;28;20194;-78
2024/03/05 06:38:35;;;;;;;31.50;17.73;;;6.40;99.90;;;;;;5032013;28;20234;-77
2024/03/05 06:41:03;;;;;;;30.43;18.23;;;6.30;99.90;;;;;;5019672;28;20260;-77
2024/03/05 06:43:36;;;;;;;35.23;18.03;;;6.30;99.90;;;;;;5050486;28;20212;-78
2024/03/05 06:46:09;;;;;;;30.63;17.63;;;6.30;99.90;;;;;;5033992;28;20190;-78
2024/03/05 06:48:37;;;;;;;31.17;18.37;;;6.30;99.90;;;;;;5034053;28;20201;-78
2024/03/05 06:51:16;;;;;;;33.73;18.00;;;6.30;99.90;;;;;;5034947;28;20636;-78
2024/03/05 06:56:41;;;;;;;29.90;17.60;;;6.30;99.90;;;;;;5035301;28;20189;-78
2024/03/05 06:59:08;;;;;;;26.03;16.67;;;6.30;99.90;;;;;;5034675;28;20243;-78
2024/03/05 07:01:34;;;;;;;29.23;17.60;;;6.30;99.90;;;;;;5034905;28;20247;-78
2024/03/05 07:04:05;;;;;;;27.30;17.43;;;6.30;99.90;;;;;;5034011;28;20182;-78
2024/03/05 07:06:32;;;;;;;29.50;18.97;;;6.30;99.90;;;;;;5033623;28;20178;-78
2024/03/05 07:08:59;;;;;;;27.10;17.97;;;6.30;99.90;;;;;;5030041;28;20193;-78
2024/03/05 07:11:26;;;;;;;30.00;17.47;;;6.40;99.90;;;;;;5034945;28;20313;-78
2024/03/05 07:13:53;;;;;;;26.27;17.00;;;6.40;99.90;;;;;;5033460;28;20584;-79
2024/03/05 07:16:20;;;;;;;26.13;17.63;;;6.40;99.90;;;;;;5033605;28;20273;-78
2024/03/05 07:18:53;;;;;;;25.63;16.77;;;6.40;99.90;;;;;;5034041;28;20219;-78
2024/03/05 07:21:23;;;;;;;29.57;17.80;;;6.40;99.90;;;;;;5034867;28;20636;-78
2024/03/05 07:23:50;;;;;;;32.33;17.67;;;6.40;99.90;;;;;;5033744;28;20601;-78
2024/03/05 07:26:17;;;;;;;31.97;18.17;;;6.50;99.90;;;;;;5034748;28;20177;-79
2024/03/05 07:28:43;;;;;;;26.67;18.00;;;6.40;99.90;;;;;;5034139;28;20213;-79
2024/03/05 07:31:08;;;;;;;28.43;16.73;;;6.50;99.90;;;;;;5034520;28;20175;-78
2024/03/05 07:33:35;;;;;;;29.33;17.20;;;6.50;99.90;;;;;;5032756;28;20179;-78
2024/03/05 07:36:01;;;;;;;28.50;17.20;;;6.50;99.90;;;;;;5034619;28;20590;-78
2024/03/05 07:38:27;;;;;;;25.00;16.50;;;6.50;99.90;;;;;;5031727;28;20215;-78
2024/03/05 07:40:53;;;;;;;25.73;16.27;;;6.60;99.90;;;;;;5025246;28;20723;-79
2024/03/05 07:43:19;;;;;;;29.63;17.27;;;6.60;99.90;;;;;;5034492;28;20265;-78
2024/03/05 07:45:44;;;;;;;23.30;16.53;;;6.60;99.90;;;;;;5033794;28;20561;-77
2024/03/05 07:48:14;;;;;;;24.97;16.50;;;6.50;99.90;;;;;;5033657;28;20191;-78
2024/03/05 07:50:44;;;;;;;22.83;16.20;;;6.50;99.90;;;;;;5034366;28;20187;-78
2024/03/05 07:53:10;;;;;;;26.63;16.37;;;6.60;99.90;;;;;;5034258;28;20175;-78
2024/03/05 07:55:39;;;;;;;23.10;16.40;;;6.60;99.90;;;;;;5033996;28;20262;-78
2024/03/05 07:58:06;;;;;;;26.70;16.23;;;6.60;99.90;;;;;;5025426;28;20199;-78
2024/03/05 08:00:32;;;;;;;24.40;15.37;;;6.60;99.90;;;;;;5028251;28;20190;-78
2024/03/05 08:02:58;;;;;;;21.53;14.67;;;6.60;99.90;;;;;;5023896;28;20385;-78
2024/03/05 08:05:25;;;;;;;23.97;15.40;;;6.60;99.90;;;;;;5020437;28;21122;-78
2024/03/05 08:07:51;;;;;;;22.30;15.73;;;6.50;99.90;;;;;;5017061;28;20187;-79
2024/03/05 08:10:17;;;;;;;24.27;15.23;;;6.50;99.90;;;;;;5012317;28;20179;-78
2024/03/05 08:12:49;;;;;;;22.17;15.80;;;6.60;99.90;;;;;;5016686;28;20270;-78
2024/03/05 08:15:16;;;;;;;23.93;15.73;;;6.50;99.90;;;;;;5013648;28;20748;-77
2024/03/05 08:17:47;;;;;;;23.30;15.50;;;6.60;99.90;;;;;;5016894;28;20207;-78
2024/03/05 08:20:26;;;;;;;26.67;15.67;;;6.60;99.90;;;;;;5018017;28;20171;-78
2024/03/05 08:22:53;;;;;;;24.03;14.73;;;6.60;99.90;;;;;;5024834;28;20232;-78
2024/03/05 08:25:20;;;;;;;23.83;14.77;;;6.60;99.90;;;;;;5023239;28;20254;-77
2024/03/05 08:27:48;;;;;;;21.47;15.07;;;6.50;99.90;;;;;;5023236;28;20634;-77
2024/03/05 08:30:21;;;;;;;23.53;14.43;;;6.50;99.90;;;;;;5019776;28;20530;-78
2024/03/05 08:32:47;;;;;;;23.53;15.03;;;6.50;99.90;;;;;;5021709;28;20210;-78
2024/03/05 08:35:13;;;;;;;22.90;15.07;;;6.50;99.90;;;;;;5024392;28;20226;-79
2024/03/05 08:37:43;;;;;;;23.67;14.70;;;6.50;99.90;;;;;;5021976;28;20211;-78
2024/03/05 08:40:15;;;;;;;25.33;15.23;;;6.50;99.90;;;;;;5021349;28;20235;-78
2024/03/05 08:42:46;;;;;;;25.93;15.13;;;6.50;99.90;;;;;;5021937;28;20197;-80
2024/03/05 08:45:15;;;;;;;21.90;14.37;;;6.50;99.90;;;;;;5017778;28;20178;-79
2024/03/05 08:47:46;;;;;;;22.77;14.37;;;6.50;99.90;;;;;;5024639;28;20277;-79
2024/03/05 08:50:12;;;;;;;24.57;14.07;;;6.40;99.90;;;;;;5032162;28;20328;-78
2024/03/05 08:52:39;;;;;;;18.93;13.67;;;6.40;99.90;;;;;;5030775;28;20190;-79
2024/03/05 08:55:08;;;;;;;21.37;13.90;;;6.40;99.90;;;;;;5025839;28;20238;-78
2024/03/05 08:57:36;;;;;;;23.23;14.33;;;6.40;99.90;;;;;;5028517;28;20634;-79
2024/03/05 09:00:03;;;;;;;25.17;14.60;;;6.40;99.90;;;;;;5030563;28;20611;-79
2024/03/05 09:02:29;;;;;;;27.43;14.80;;;6.50;99.90;;;;;;5027772;28;20191;-79
2024/03/05 09:04:55;;;;;;;21.77;13.90;;;6.50;99.90;;;;;;5017398;28;20516;-79
2024/03/05 09:07:21;;;;;;;23.30;15.13;;;6.50;99.90;;;;;;5025771;28;20178;-78
2024/03/05 09:10:14;;;;;;;28.00;13.63;;;6.60;99.90;;;;;;5024718;28;20232;-78
2024/03/05 09:12:41;;;;;;;26.93;14.20;;;6.60;99.90;;;;;;5018528;28;20273;-79
2024/03/05 09:15:08;;;;;;;24.10;15.03;;;6.60;99.90;;;;;;5026988;28;20187;-79
2024/03/05 09:17:34;;;;;;;26.17;14.27;;;6.60;99.90;;;;;;5019272;28;20203;-79
2024/03/05 09:20:09;;;;;;;27.87;15.10;;;6.60;99.90;;;;;;5022733;28;20241;-79
2024/03/05 09:22:35;;;;;;;21.07;13.93;;;6.60;99.90;;;;;;5018943;28;20202;-79
2024/03/05 09:25:01;;;;;;;20.90;13.40;;;6.60;99.90;;;;;;5025823;28;20253;-78
2024/03/05 09:27:26;;;;;;;19.93;13.87;;;6.60;99.90;;;;;;5026236;28;20174;-78
2024/03/05 09:29:55;;;;;;;23.97;14.73;;;6.60;99.90;;;;;;5027085;28;20183;-78
2024/03/05 09:32:20;;;;;;;18.70;13.83;;;6.60;99.90;;;;;;5035568;28;20278;-78
2024/03/05 09:34:46;;;;;;;22.80;13.60;;;6.70;99.90;;;;;;5020291;28;20254;-79
2024/03/05 09:37:12;;;;;;;23.80;14.43;;;6.70;99.90;;;;;;5021745;28;20283;-78
2024/03/05 09:39:38;;;;;;;22.27;13.57;;;6.70;99.90;;;;;;5035073;28;20198;-78
2024/03/05 09:42:04;;;;;;;17.60;12.77;;;6.70;99.90;;;;;;5031976;28;20573;-78
2024/03/05 09:44:30;;;;;;;21.07;13.20;;;6.70;99.90;;;;;;5042328;28;20215;-79
2024/03/05 09:46:57;;;;;;;21.17;13.47;;;6.70;99.90;;;;;;5026533;28;20182;-78
2024/03/05 09:49:22;;;;;;;22.97;13.20;;;6.70;99.90;;;;;;5020729;28;20242;-78
2024/03/05 09:51:48;;;;;;;25.70;14.50;;;6.70;99.90;;;;;;5020678;28;20184;-78
2024/03/05 09:54:14;;;;;;;20.77;13.53;;;6.60;99.90;;;;;;5027029;28;20171;-78
2024/03/05 09:56:45;;;;;;;23.17;12.87;;;6.60;99.90;;;;;;5022642;28;20186;-78
2024/03/05 09:59:12;;;;;;;25.07;13.20;;;6.60;99.90;;;;;;5018606;28;20723;-78
2024/03/05 10:01:44;;;;;;;22.63;13.77;;;6.60;99.90;;;;;;5028222;28;20237;-79
2024/03/05 10:04:17;;;;;;;21.50;13.93;;;6.60;99.90;;;;;;5025260;28;20183;-78
2024/03/05 10:06:46;;;;;;;26.50;14.00;;;6.60;99.90;;;;;;5021777;28;20191;-79
2024/03/05 10:09:13;;;;;;;26.30;14.17;;;6.60;99.90;;;;;;5018929;28;20233;-79
2024/03/05 10:11:40;;;;;;;19.13;13.53;;;6.60;99.90;;;;;;5014370;28;20187;-78
2024/03/05 10:14:10;;;;;;;23.17;14.07;;;6.50;99.90;;;;;;5035044;28;20244;-79
2024/03/05 10:16:37;;;;;;;20.80;13.27;;;6.50;99.90;;;;;;5034454;28;20636;-79
2024/03/05 10:19:17;;;;;;;22.53;13.17;;;6.50;99.90;;;;;;5033783;28;20211;-78
2024/03/05 10:21:44;;;;;;;27.23;12.97;;;6.50;99.90;;;;;;5035440;28;20628;-78
2024/03/05 10:24:11;;;;;;;21.27;13.50;;;6.50;99.90;;;;;;5034860;28;20185;-79
2024/03/05 10:26:38;;;;;;;21.30;12.73;;;6.40;99.90;;;;;;5035361;28;20629;-79
2024/03/05 10:29:09;;;;;;;19.40;13.43;;;6.50;99.90;;;;;;5027551;28;20186;-79
2024/03/05 10:31:40;;;;;;;20.03;13.27;;;6.50;99.90;;;;;;5035618;28;20175;-79
2024/03/05 10:34:06;;;;;;;21.57;13.27;;;6.50;99.90;;;;;;5035315;28;20175;-80
2024/03/05 10:36:42;;;;;;;25.73;14.50;;;6.50;99.90;;;;;;5035442;28;20175;-79
2024/03/05 10:39:11;;;;;;;23.47;14.37;;;6.50;99.90;;;;;;5026403;28;20297;-78
2024/03/05 10:41:38;;;;;;;20.40;13.87;;;6.50;99.90;;;;;;5035031;28;20329;-80
2024/03/05 10:44:07;;;;;;;21.80;14.23;;;6.50;99.90;;;;;;5033971;28;20194;-79
2024/03/05 10:46:35;;;;;;;23.13;14.10;;;6.50;99.90;;;;;;5035287;28;20261;-81
2024/03/05 10:49:05;;;;;;;24.27;13.87;;;6.50;99.90;;;;;;5034792;28;20671;-79
2024/03/05 10:51:35;;;;;;;22.67;13.77;;;6.50;99.90;;;;;;5035383;28;20513;-79
2024/03/05 10:54:02;;;;;;;21.80;13.77;;;6.50;99.90;;;;;;5050452;28;20210;-78
2024/03/05 10:56:32;;;;;;;21.67;13.73;;;6.50;99.90;;;;;;5035372;28;20273;-79
2024/03/05 11:01:45;;;;;;;21.87;13.50;;;6.50;99.90;;;;;;5034775;28;20277;-79
2024/03/05 11:04:18;;;;;;;19.50;13.20;;;6.50;99.90;;;;;;5034689;28;20189;-79
2024/03/05 11:06:47;;;;;;;22.73;13.10;;;6.60;99.90;;;;;;5033654;28;20187;-79
2024/03/05 11:09:19;;;;;;;22.13;13.63;;;6.60;99.90;;;;;;5031213;28;20648;-79
2024/03/05 11:12:08;;;;;;;23.07;13.57;;;6.60;99.90;;;;;;5034811;28;20225;-78
2024/03/05 11:14:35;;;;;;;23.67;13.60;;;6.60;99.90;;;;;;5034311;28;20508;-79
2024/03/05 11:17:09;;;;;;;27.07;13.40;;;6.60;99.90;;;;;;5034059;28;20583;-79
2024/03/05 11:19:41;;;;;;;23.07;13.20;;;6.60;99.90;;;;;;5019470;28;20171;-79
2024/03/05 11:22:22;;;;;;;24.17;13.27;;;6.60;99.90;;;;;;5027244;28;20178;-79
2024/03/05 11:24:53;;;;;;;24.23;13.13;;;6.60;99.90;;;;;;5032764;28;20186;-78
2024/03/05 11:27:28;;;;;;;21.43;13.57;;;6.60;99.90;;;;;;5034682;28;20574;-79
2024/03/05 11:30:11;;;;;;;25.77;13.50;;;6.60;99.90;;;;;;5049783;28;20193;-78
2024/03/05 11:32:38;;;;;;;20.77;13.30;;;6.60;99.90;;;;;;5034208;28;20522;-79
2024/03/05 11:35:07;;;;;;;20.73;13.50;;;6.60;99.90;;;;;;5019916;28;20629;-79
2024/03/05 11:37:50;;;;;;;23.33;13.90;;;6.60;99.90;;;;;;5034335;28;20191;-78
2024/03/05 11:40:18;;;;;;;24.10;13.47;;;6.60;99.90;;;;;;5025902;28;20218;-79
2024/03/05 11:42:46;;;;;;;20.67;13.33;;;6.50;99.90;;;;;;5034303;28;20260;-78
2024/03/05 11:45:43;;;;;;;22.33;13.60;;;6.50;99.90;;;;;;5044071;28;20195;-80
2024/03/05 11:48:23;;;;;;;20.63;13.30;;;6.60;99.90;;;;;;5018355;28;20657;-79
2024/03/05 11:50:54;;;;;;;20.40;13.13;;;6.60;99.90;;;;;;5040616;28;20171;-79
2024/03/05 11:53:20;;;;;;;25.77;14.07;;;6.50;99.90;;;;;;5032851;28;20509;-79
2024/03/05 11:55:50;;;;;;;19.93;13.03;;;6.50;99.90;;;;;;5033964;28;20220;-79
2024/03/05 11:58:25;;;;;;;23.07;13.50;;;6.60;99.90;;;;;;5049373;28;20214;-79
2024/03/05 12:01:02;;;;;;;20.87;13.27;;;6.50;99.90;;;;;;5034024;28;20185;-80
2024/03/05 12:03:28;;;;;;;19.70;12.93;;;6.50;99.90;;;;;;5032886;28;20628;-80
2024/03/05 12:05:54;;;;;;;24.50;13.93;;;6.50;99.90;;;;;;5041014;28;20280;-79
2024/03/05 12:08:25;;;;;;;18.83;12.80;;;6.50;99.90;;;;;;5032333;28;20186;-79
2024/03/05 12:11:01;;;;;;;22.37;13.27;;;6.50;99.90;;;;;;5031744;28;20182;-79
2024/03/05 12:13:27;;;;;;;25.20;13.00;;;6.60;99.90;;;;;;5049422;28;20182;-78
2024/03/05 12:15:53;;;;;;;19.13;12.40;;;6.60;99.90;;;;;;5033940;28;20572;-79
2024/03/05 12:18:18;;;;;;;22.53;12.70;;;6.60;99.90;;;;;;5033237;28;20676;-81
2024/03/05 12:20:45;;;;;;;21.87;12.87;;;6.60;99.90;;;;;;5033436;28;20178;-79
2024/03/05 12:23:11;;;;;;;22.77;13.70;;;6.70;99.90;;;;;;5025669;28;20202;-80
2024/03/05 12:25:37;;;;;;;21.13;12.57;;;6.70;99.90;;;;;;5020376;28;20174;-78
2024/03/05 12:28:05;;;;;;;22.23;13.73;;;6.70;99.90;;;;;;5033921;28;20178;-79
2024/03/05 12:30:33;;;;;;;23.13;12.77;;;6.70;99.90;;;;;;5018172;28;20188;-79
2024/03/05 12:33:00;;;;;;;26.00;13.73;;;6.80;99.90;;;;;;5024522;28;20187;-80
2024/03/05 12:35:26;;;;;;;24.47;12.97;;;6.80;99.90;;;;;;5033768;28;20614;-80
2024/03/05 12:37:52;;;;;;;19.73;13.07;;;6.80;99.90;;;;;;5022950;28;20207;-79
2024/03/05 12:40:19;;;;;;;23.07;12.83;;;6.80;99.90;;;;;;5025213;28;20264;-79
2024/03/05 12:42:50;;;;;;;21.70;12.23;;;6.90;99.90;;;;;;5033898;28;20182;-79
2024/03/05 12:45:17;;;;;;;23.33;12.50;;;6.90;99.90;;;;;;5033864;28;20526;-79
2024/03/05 12:47:54;;;;;;;18.70;11.70;;;6.90;99.90;;;;;;5033457;28;20217;-79